createdAt,value
2023-03-30T00:01:15.385Z,-6.50
2023-03-30T00:06:23.469Z,-6.52
2023-03-30T00:11:27.728Z,-6.68
2023-03-30T00:16:30.631Z,-6.48
2023-03-30T00:21:33.843Z,-6.51
2023-03-30T00:26:36.931Z,-6.41
2023-03-30T00:31:40.183Z,-6.33
2023-03-30T00:36:42.886Z,-6.35
2023-03-30T00:41:46.804Z,-6.42
2023-03-30T00:46:49.506Z,-6.50
2023-03-30T00:51:52.239Z,-6.38
2023-03-30T00:56:55.469Z,-6.31
2023-03-30T01:01:59.137Z,-6.26
2023-03-30T01:07:01.859Z,-6.12
2023-03-30T01:12:05.782Z,-6.12
2023-03-30T01:17:20.464Z,-6.27
2023-03-30T01:22:38.304Z,-6.47
2023-03-30T01:27:51.922Z,-6.47
2023-03-30T01:33:21.522Z,-6.44
2023-03-30T01:38:34.878Z,-6.42
2023-03-30T01:43:46.557Z,-6.37
2023-03-30T01:49:16.998Z,-6.07
2023-03-30T01:54:25.142Z,-5.69
2023-03-30T01:59:31.048Z,-5.59
2023-03-30T02:04:40.059Z,-5.74
2023-03-30T02:09:43.059Z,-5.90
2023-03-30T02:14:47.478Z,-5.82
2023-03-30T02:19:50.558Z,-5.75
2023-03-30T02:24:58.597Z,-5.93
2023-03-30T02:30:01.682Z,-5.99
2023-03-30T02:35:09.351Z,-6.08
2023-03-30T02:40:31.729Z,-6.23
2023-03-30T02:45:34.680Z,-6.09
2023-03-30T02:50:56.798Z,-6.06
2023-03-30T02:56:47.800Z,-6.03
2023-03-30T03:01:54.918Z,-5.76
2023-03-30T03:06:58.140Z,-5.62
2023-03-30T03:12:01.005Z,-5.32
2023-03-30T03:17:10.931Z,-4.68
2023-03-30T03:22:19.369Z,-4.86
2023-03-30T03:27:22.591Z,-4.38
2023-03-30T03:32:41.581Z,-4.42
2023-03-30T03:37:44.399Z,-4.40
2023-03-30T03:42:47.694Z,-4.64
2023-03-30T03:47:51.922Z,-4.38
2023-03-30T03:53:00.749Z,-3.78
2023-03-30T03:58:04.632Z,-3.48
2023-03-30T04:03:09.424Z,-3.53
2023-03-30T04:08:12.274Z,-3.78
2023-03-30T04:13:15.808Z,-4.18
2023-03-30T04:18:37.058Z,-4.85
2023-03-30T04:24:02.368Z,-4.99
2023-03-30T04:29:07.109Z,-4.77
2023-03-30T04:34:48.324Z,-5.09
2023-03-30T04:40:00.815Z,-5.46
2023-03-30T04:45:23.886Z,-5.28
2023-03-30T04:50:58.823Z,-5.15
2023-03-30T04:56:14.763Z,-5.40
2023-03-30T05:01:40.496Z,-5.13
2023-03-30T05:06:54.205Z,-4.96
2023-03-30T05:12:17.065Z,-4.72
2023-03-30T05:17:43.520Z,-3.89
2023-03-30T05:23:02.080Z,-3.50
2023-03-30T05:28:34.573Z,-3.14
2023-03-30T05:33:53.690Z,-3.70
2023-03-30T05:39:28.508Z,-4.11
2023-03-30T05:44:51.900Z,-4.38
2023-03-30T05:50:13.383Z,-3.96
2023-03-30T05:55:47.217Z,-3.43
2023-03-30T06:00:53.171Z,-3.51
2023-03-30T06:06:08.365Z,-3.92
2023-03-30T06:11:13.045Z,-4.16
2023-03-30T06:16:29.515Z,-3.89
2023-03-30T06:21:32.925Z,-3.74
2023-03-30T06:27:05.373Z,-3.96
2023-03-30T06:32:08.538Z,-3.96
2023-03-30T06:37:43.520Z,-3.77
2023-03-30T06:42:47.325Z,-3.62
2023-03-30T06:47:57.955Z,-3.92
2023-03-30T06:53:00.901Z,-3.94
2023-03-30T06:58:10.030Z,-3.94
2023-03-30T07:03:13.404Z,-4.02
2023-03-30T07:08:40.663Z,-3.79
2023-03-30T07:13:46.857Z,-3.85
2023-03-30T07:18:50.845Z,-3.73
2023-03-30T07:23:53.790Z,-3.67
2023-03-30T07:29:07.815Z,-3.43
2023-03-30T07:34:12.929Z,-3.45
2023-03-30T07:39:22.088Z,-3.42
2023-03-30T07:44:29.622Z,-3.19
2023-03-30T07:49:37.342Z,-2.94
2023-03-30T07:54:40.924Z,-3.01
2023-03-30T07:59:56.265Z,-3.03
2023-03-30T08:05:19.438Z,-2.87
2023-03-30T08:10:41.057Z,-2.70
2023-03-30T08:15:44.189Z,-2.81
2023-03-30T08:20:51.423Z,-2.60
2023-03-30T08:25:57.764Z,-2.75
2023-03-30T08:31:06.429Z,-2.41
2023-03-30T08:36:09.438Z,-2.36
2023-03-30T08:41:30.405Z,-2.74
2023-03-30T08:46:33.954Z,-2.60
2023-03-30T08:51:37.087Z,-2.56
2023-03-30T08:56:42.849Z,-2.40
2023-03-30T09:01:48.242Z,-2.64
2023-03-30T09:06:54.677Z,-2.72
2023-03-30T09:12:06.312Z,-2.38
2023-03-30T09:17:26.073Z,-2.34
2023-03-30T09:22:38.451Z,-2.35
2023-03-30T09:28:01.459Z,-2.52
2023-03-30T09:33:33.514Z,-2.38
2023-03-30T09:38:38.612Z,-2.05
2023-03-30T09:43:47.898Z,-2.15
2023-03-30T09:48:51.756Z,-2.52
2023-03-30T09:54:00.306Z,-2.44
2023-03-30T09:59:28.484Z,-2.67
2023-03-30T10:04:31.249Z,-2.70
2023-03-30T10:09:34.021Z,-2.40
2023-03-30T10:14:37.254Z,-1.93
2023-03-30T10:19:45.923Z,-2.03
2023-03-30T10:24:55.715Z,-2.58
2023-03-30T10:29:58.679Z,-2.86
2023-03-30T10:35:04.860Z,-2.68
2023-03-30T10:40:32.786Z,-2.51
2023-03-30T10:45:40.888Z,-2.53
2023-03-30T10:50:55.916Z,-2.66
2023-03-30T10:56:20.704Z,-2.17
2023-03-30T11:01:43.030Z,-2.07
2023-03-30T11:06:46.182Z,-2.51
2023-03-30T11:12:01.930Z,-2.45
2023-03-30T11:17:39.328Z,-2.26
2023-03-30T11:22:46.935Z,-2.34
2023-03-30T11:28:00.712Z,-2.48
2023-03-30T11:33:13.051Z,-2.69
2023-03-30T11:38:19.996Z,-2.90
2023-03-30T11:43:29.825Z,-3.04
2023-03-30T11:48:57.704Z,-3.07
2023-03-30T11:54:18.493Z,-3.21
2023-03-30T11:59:46.381Z,-3.55
2023-03-30T12:05:04.709Z,-3.83
2023-03-30T12:10:19.607Z,-4.26
2023-03-30T12:15:40.787Z,-4.22
2023-03-30T12:21:06.553Z,-4.42
2023-03-30T12:26:24.734Z,-4.70
2023-03-30T12:31:53.019Z,-4.97
2023-03-30T12:37:33.773Z,-5.15
2023-03-30T12:42:46.695Z,-5.33
2023-03-30T12:47:54.392Z,-5.42
2023-03-30T12:53:24.076Z,-5.58
2023-03-30T12:58:53.247Z,-5.66
2023-03-30T13:04:00.299Z,-5.82
2023-03-30T13:09:09.208Z,-5.76
2023-03-30T13:14:39.545Z,-5.92
2023-03-30T13:19:48.902Z,-6.08
2023-03-30T13:24:58.904Z,-5.98
2023-03-30T13:30:08.211Z,-6.00
2023-03-30T13:35:19.816Z,-6.09
2023-03-30T13:40:38.093Z,-6.11
2023-03-30T13:46:00.419Z,-6.28
2023-03-30T13:51:25.782Z,-6.25
2023-03-30T13:56:32.279Z,-6.49
2023-03-30T14:01:39.577Z,-6.42
2023-03-30T14:06:50.162Z,-6.55
2023-03-30T14:11:53.960Z,-6.58
2023-03-30T14:16:58.737Z,-6.75
2023-03-30T14:22:05.177Z,-6.85
2023-03-30T14:27:14.484Z,-6.82
2023-03-30T14:32:23.775Z,-6.89
2023-03-30T14:37:26.984Z,-7.03
2023-03-30T14:42:34.411Z,-7.05
2023-03-30T14:47:38.020Z,-7.03
2023-03-30T14:52:43.277Z,-7.00
2023-03-30T14:57:46.795Z,-6.93
2023-03-30T15:02:58.802Z,-7.13
2023-03-30T15:08:03.176Z,-6.96
2023-03-30T15:13:07.824Z,-7.13
2023-03-30T15:18:17.450Z,-7.15
2023-03-30T15:23:20.318Z,-7.23
2023-03-30T15:28:23.065Z,-7.26
2023-03-30T15:33:36.827Z,-7.34
2023-03-30T15:38:50.981Z,-7.46
2023-03-30T15:44:13.547Z,-7.50
2023-03-30T15:49:19.216Z,-7.56
2023-03-30T15:54:44.902Z,-7.77
2023-03-30T15:59:53.098Z,-7.85
2023-03-30T16:04:56.147Z,-8.05
2023-03-30T16:09:59.020Z,-7.94
2023-03-30T16:15:02.001Z,-7.91
2023-03-30T16:20:26.571Z,-7.93
2023-03-30T16:30:38.706Z,-7.82
2023-03-30T16:35:41.420Z,-7.88
2023-03-30T16:40:46.472Z,-7.83
2023-03-30T16:45:49.406Z,-7.78
2023-03-30T16:50:53.613Z,-7.69
2023-03-30T16:55:56.526Z,-7.62
2023-03-30T17:01:05.568Z,-7.50
2023-03-30T17:06:09.040Z,-7.19
2023-03-30T17:11:13.816Z,-6.83
2023-03-30T17:16:16.923Z,-6.73
2023-03-30T17:21:19.804Z,-6.78
2023-03-30T17:26:22.528Z,-6.95
2023-03-30T17:31:25.349Z,-7.04
2023-03-30T17:36:29.080Z,-7.06
2023-03-30T17:41:34.002Z,-7.06
2023-03-30T17:46:36.878Z,-7.24
2023-03-30T17:51:39.895Z,-7.52
2023-03-30T17:56:42.604Z,-7.89
2023-03-30T18:01:45.462Z,-7.97
2023-03-30T18:06:49.297Z,-8.12
2023-03-30T18:11:52.165Z,-8.18
2023-03-30T18:17:05.959Z,-8.28
2023-03-30T18:22:09.874Z,-8.46
2023-03-30T18:27:12.754Z,-8.40
2023-03-30T18:32:15.638Z,-8.44
2023-03-30T18:37:18.334Z,-8.55
2023-03-30T18:42:21.110Z,-8.59
2023-03-30T18:47:25.086Z,-8.43
2023-03-30T18:52:29.422Z,-8.10
2023-03-30T18:57:32.101Z,-7.90
2023-03-30T19:02:34.916Z,-7.87
2023-03-30T19:07:37.779Z,-8.35
2023-03-30T19:12:40.604Z,-8.50
2023-03-30T19:17:43.338Z,-8.55
2023-03-30T19:22:46.420Z,-8.39
2023-03-30T19:28:02.053Z,-8.19
2023-03-30T19:33:08.960Z,-7.88
2023-03-30T19:38:11.850Z,-7.60
2023-03-30T19:43:14.616Z,-7.41
2023-03-30T19:48:17.498Z,-7.32
2023-03-30T19:53:20.196Z,-7.21
2023-03-30T19:58:22.901Z,-7.19
2023-03-30T20:03:27.086Z,-7.45
2023-03-30T20:08:29.925Z,-7.63
2023-03-30T20:13:32.645Z,-7.66
2023-03-30T20:18:36.044Z,-7.62
2023-03-30T20:23:38.699Z,-7.53
2023-03-30T20:28:41.607Z,-7.39
2023-03-30T20:33:44.659Z,-7.34
2023-03-30T20:38:47.511Z,-7.39
2023-03-30T20:43:56.787Z,-7.52
2023-03-30T20:49:02.460Z,-7.62
2023-03-30T20:54:06.030Z,-7.89
2023-03-30T20:59:08.719Z,-8.16
2023-03-30T21:04:11.834Z,-8.53
2023-03-30T21:09:14.583Z,-8.46
2023-03-30T21:14:17.340Z,-8.59
2023-03-30T21:19:19.976Z,-8.64
2023-03-30T21:24:22.849Z,-8.75
2023-03-30T21:29:25.557Z,-8.80
2023-03-30T21:34:28.310Z,-8.94
2023-03-30T21:39:31.202Z,-8.83
2023-03-30T21:44:35.427Z,-8.89
2023-03-30T21:49:38.067Z,-8.94
2023-03-30T21:54:40.896Z,-9.03
2023-03-30T21:59:43.644Z,-9.19
2023-03-30T22:04:46.459Z,-9.36
2023-03-30T22:09:49.278Z,-9.44
2023-03-30T22:14:53.078Z,-9.56
2023-03-30T22:19:56.431Z,-9.75
2023-03-30T22:24:59.174Z,-9.64
2023-03-30T22:30:02.388Z,-9.85
2023-03-30T22:35:06.897Z,-9.85
2023-03-30T22:40:10.202Z,-9.99
2023-03-30T22:45:13.048Z,-10.08
2023-03-30T22:50:17.802Z,-10.25
2023-03-30T22:55:21.182Z,-10.30
2023-03-30T23:00:25.025Z,-10.41
2023-03-30T23:05:27.732Z,-10.54
2023-03-30T23:10:34.040Z,-10.66
2023-03-30T23:15:36.914Z,-10.89
2023-03-30T23:20:39.607Z,-11.14
2023-03-30T23:25:50.481Z,-11.36
2023-03-30T23:30:53.247Z,-11.62
2023-03-30T23:35:55.946Z,-11.67
2023-03-30T23:40:59.661Z,-11.87
2023-03-30T23:46:02.368Z,-11.77
2023-03-30T23:51:06.397Z,-11.86
2023-03-30T23:56:13.290Z,-11.91
